createdAt,value
2023-01-07T00:02:20.753Z,0.80
2023-01-07T00:04:48.953Z,1.77
2023-01-07T00:07:17.145Z,0.83
2023-01-07T00:09:45.332Z,0.90
2023-01-07T00:12:13.511Z,0.87
2023-01-07T00:14:41.722Z,0.90
2023-01-07T00:17:09.896Z,0.93
2023-01-07T00:19:40.120Z,0.70
2023-01-07T00:22:08.326Z,0.70
2023-01-07T00:24:36.562Z,1.40
2023-01-07T00:27:04.859Z,0.80
2023-01-07T00:29:33.053Z,0.97
2023-01-07T00:32:01.235Z,1.23
2023-01-07T00:34:29.409Z,1.00
2023-01-07T00:37:18.898Z,0.80
2023-01-07T00:39:47.106Z,0.97
2023-01-07T00:42:32.955Z,0.80
2023-01-07T00:45:01.219Z,1.00
2023-01-07T00:47:29.586Z,0.93
2023-01-07T00:49:57.803Z,1.93
2023-01-07T00:52:27.402Z,1.70
2023-01-07T00:54:55.565Z,1.10
2023-01-07T00:57:23.721Z,0.90
2023-01-07T00:59:51.983Z,0.70
2023-01-07T01:02:20.659Z,0.97
2023-01-07T01:04:48.919Z,0.80
2023-01-07T01:07:17.085Z,1.00
2023-01-07T01:09:46.659Z,0.70
2023-01-07T01:12:15.113Z,0.87
2023-01-07T01:14:43.343Z,0.70
2023-01-07T01:17:11.568Z,0.77
2023-01-07T01:19:40.704Z,0.70
2023-01-07T01:22:09.398Z,0.90
2023-01-07T01:24:37.579Z,0.90
2023-01-07T01:27:07.125Z,0.80
2023-01-07T01:29:35.344Z,1.10
2023-01-07T01:32:03.628Z,0.90
2023-01-07T01:34:31.862Z,0.80
2023-01-07T01:37:00.028Z,0.70
2023-01-07T01:39:28.357Z,0.60
2023-01-07T01:41:56.606Z,0.90
2023-01-07T01:44:39.448Z,0.73
2023-01-07T01:47:16.714Z,1.10
2023-01-07T01:49:50.107Z,0.90
2023-01-07T01:52:21.241Z,0.73
2023-01-07T01:54:53.499Z,0.90
2023-01-07T01:57:22.643Z,0.73
2023-01-07T01:59:53.564Z,0.73
2023-01-07T02:02:26.477Z,0.60
2023-01-07T02:04:56.074Z,0.77
2023-01-07T02:07:24.243Z,0.80
2023-01-07T02:10:00.022Z,0.83
2023-01-07T02:12:42.150Z,0.80
2023-01-07T02:15:15.058Z,0.90
2023-01-07T02:18:07.460Z,0.70
2023-01-07T02:20:48.329Z,1.00
2023-01-07T02:23:44.730Z,0.70
2023-01-07T02:26:40.493Z,0.80
2023-01-07T02:30:02.806Z,1.57
2023-01-07T02:33:00.854Z,0.80
2023-01-07T02:35:51.675Z,0.70
2023-01-07T02:38:28.232Z,0.60
2023-01-07T02:41:06.909Z,0.60
2023-01-07T02:43:43.132Z,0.90
2023-01-07T02:46:17.913Z,0.70
2023-01-07T02:48:47.548Z,0.80
2023-01-07T02:51:16.072Z,0.83
2023-01-07T02:53:49.207Z,0.77
2023-01-07T02:56:30.393Z,0.80
2023-01-07T02:59:24.606Z,0.80
2023-01-07T03:02:16.453Z,0.70
2023-01-07T03:05:06.987Z,0.67
2023-01-07T03:07:45.619Z,0.60
2023-01-07T03:10:25.744Z,0.87
2023-01-07T03:12:59.299Z,0.83
2023-01-07T03:15:32.927Z,1.10
2023-01-07T03:18:05.825Z,1.10
2023-01-07T03:20:38.362Z,0.70
2023-01-07T03:23:09.817Z,0.70
2023-01-07T03:25:44.517Z,1.07
2023-01-07T03:28:16.259Z,0.90
2023-01-07T03:30:45.664Z,0.83
2023-01-07T03:33:18.885Z,0.70
2023-01-07T03:35:51.392Z,0.80
2023-01-07T03:38:22.538Z,1.00
2023-01-07T03:40:51.470Z,0.83
2023-01-07T03:43:20.600Z,0.67
2023-01-07T03:45:50.641Z,1.00
2023-01-07T03:48:18.871Z,0.90
2023-01-07T03:50:48.500Z,1.03
2023-01-07T03:53:16.698Z,1.10
2023-01-07T03:55:44.895Z,1.13
2023-01-07T03:58:12.990Z,1.00
2023-01-07T04:00:41.188Z,1.03
2023-01-07T04:03:09.348Z,1.03
2023-01-07T04:05:37.496Z,1.10
2023-01-07T04:08:07.128Z,1.10
2023-01-07T04:10:35.301Z,1.67
2023-01-07T04:13:03.471Z,1.40
2023-01-07T04:15:31.652Z,1.10
2023-01-07T04:17:59.834Z,1.13
2023-01-07T04:20:28.059Z,1.10
2023-01-07T04:22:56.272Z,1.37
2023-01-07T04:25:25.872Z,0.93
2023-01-07T04:27:54.075Z,1.00
2023-01-07T04:30:22.325Z,1.00
2023-01-07T04:32:51.285Z,1.00
2023-01-07T04:35:19.505Z,1.00
2023-01-07T04:37:47.755Z,1.50
2023-01-07T04:40:16.043Z,0.90
2023-01-07T04:42:45.522Z,1.00
2023-01-07T04:45:13.742Z,1.30
2023-01-07T04:47:41.978Z,1.10
2023-01-07T04:50:10.896Z,1.43
2023-01-07T04:52:39.090Z,1.30
2023-01-07T04:55:08.540Z,1.60
2023-01-07T04:57:36.777Z,1.60
2023-01-07T05:00:08.591Z,1.20
2023-01-07T05:02:37.083Z,1.37
2023-01-07T05:05:05.996Z,1.30
2023-01-07T05:07:34.197Z,1.10
2023-01-07T05:10:02.610Z,1.07
2023-01-07T05:12:34.007Z,0.93
2023-01-07T05:15:02.377Z,0.80
2023-01-07T05:17:31.903Z,1.10
2023-01-07T05:20:00.244Z,1.10
2023-01-07T05:22:28.488Z,0.73
2023-01-07T05:24:56.660Z,1.00
2023-01-07T05:27:24.840Z,0.70
2023-01-07T05:29:53.008Z,1.20
2023-01-07T05:32:21.207Z,1.10
2023-01-07T05:34:50.815Z,1.10
2023-01-07T05:37:19.072Z,1.00
2023-01-07T05:39:47.283Z,1.00
2023-01-07T05:42:15.428Z,0.70
2023-01-07T05:44:43.625Z,0.90
2023-01-07T05:47:11.807Z,1.00
2023-01-07T05:49:40.042Z,0.93
2023-01-07T05:52:09.678Z,0.80
2023-01-07T05:54:37.844Z,1.10
2023-01-07T05:57:06.069Z,0.70
2023-01-07T05:59:34.970Z,0.63
2023-01-07T06:02:03.356Z,0.97
2023-01-07T06:04:31.544Z,0.73
2023-01-07T06:06:59.807Z,0.80
2023-01-07T06:09:30.609Z,0.80
2023-01-07T06:11:59.059Z,0.80
2023-01-07T06:14:27.313Z,0.90
2023-01-07T06:16:55.472Z,1.20
2023-01-07T06:19:23.738Z,1.00
2023-01-07T06:21:51.949Z,0.90
2023-01-07T06:24:20.138Z,0.90
2023-01-07T06:26:49.732Z,0.90
2023-01-07T06:29:17.904Z,1.00
2023-01-07T06:31:46.125Z,0.80
2023-01-07T06:34:14.282Z,0.70
2023-01-07T06:36:42.501Z,1.00
2023-01-07T06:39:10.828Z,0.90
2023-01-07T06:41:39.449Z,0.90
2023-01-07T06:44:09.119Z,0.83
2023-01-07T06:46:37.392Z,0.70
2023-01-07T06:49:05.687Z,0.80
2023-01-07T06:51:33.870Z,0.60
2023-01-07T06:54:02.343Z,0.80
2023-01-07T06:56:30.531Z,0.90
2023-01-07T06:58:58.745Z,0.80
2023-01-07T07:01:28.295Z,0.70
2023-01-07T07:03:56.464Z,0.93
2023-01-07T07:06:24.752Z,0.70
2023-01-07T07:08:52.939Z,0.63
2023-01-07T07:11:21.190Z,0.90
2023-01-07T07:13:49.309Z,0.70
2023-01-07T07:16:17.638Z,1.00
2023-01-07T07:18:47.323Z,0.80
2023-01-07T07:21:19.587Z,0.63
2023-01-07T07:23:47.861Z,0.83
2023-01-07T07:26:16.055Z,0.80
2023-01-07T07:28:44.691Z,0.60
2023-01-07T07:31:13.287Z,0.73
2023-01-07T07:33:41.542Z,1.03
2023-01-07T07:36:11.370Z,0.90
2023-01-07T07:38:39.646Z,0.80
2023-01-07T07:41:07.856Z,0.83
2023-01-07T07:43:36.463Z,1.03
2023-01-07T07:46:05.054Z,1.00
2023-01-07T07:48:33.313Z,1.03
2023-01-07T07:51:01.465Z,1.07
2023-01-07T07:53:31.106Z,0.80
2023-01-07T07:55:59.401Z,0.87
2023-01-07T07:58:27.618Z,0.80
2023-01-07T08:00:55.906Z,0.77
2023-01-07T08:03:24.300Z,0.63
2023-01-07T08:05:52.648Z,0.87
2023-01-07T08:08:20.896Z,0.80
2023-01-07T08:10:50.447Z,0.90
2023-01-07T08:13:19.313Z,1.20
2023-01-07T08:15:48.719Z,1.30
2023-01-07T08:18:16.974Z,1.30
2023-01-07T08:20:45.149Z,1.23
2023-01-07T08:23:13.327Z,1.10
2023-01-07T08:25:42.610Z,2.70
2023-01-07T08:28:12.680Z,1.17
2023-01-07T08:30:41.337Z,1.10
2023-01-07T08:33:09.891Z,1.50
2023-01-07T08:35:38.185Z,1.07
2023-01-07T08:38:08.747Z,1.33
2023-01-07T08:40:37.943Z,1.10
2023-01-07T08:43:07.891Z,1.10
2023-01-07T08:45:37.626Z,1.20
2023-01-07T08:48:06.468Z,1.00
2023-01-07T08:50:34.909Z,1.30
2023-01-07T08:53:03.096Z,1.00
2023-01-07T08:55:31.384Z,1.53
2023-01-07T08:57:59.864Z,0.90
2023-01-07T09:00:28.584Z,1.20
2023-01-07T09:02:58.171Z,1.10
2023-01-07T09:05:26.392Z,1.27
2023-01-07T09:07:55.407Z,0.90
2023-01-07T09:10:24.313Z,1.10
2023-01-07T09:12:52.670Z,1.23
2023-01-07T09:15:21.153Z,1.30
2023-01-07T09:17:49.412Z,1.63
2023-01-07T09:20:19.312Z,1.43
2023-01-07T09:22:47.992Z,1.33
2023-01-07T09:25:16.484Z,1.67
2023-01-07T09:27:45.628Z,1.57
2023-01-07T09:30:14.450Z,1.80
2023-01-07T09:32:43.528Z,1.47
2023-01-07T09:35:12.528Z,2.13
2023-01-07T09:37:42.139Z,1.87
2023-01-07T09:40:22.472Z,2.07
2023-01-07T09:42:57.962Z,1.73
2023-01-07T09:45:29.377Z,2.50
2023-01-07T09:48:00.589Z,1.80
2023-01-07T09:50:48.269Z,2.70
2023-01-07T09:53:23.507Z,2.10
2023-01-07T09:56:11.816Z,1.87
2023-01-07T09:58:48.524Z,2.70
2023-01-07T10:01:27.004Z,2.50
2023-01-07T10:04:23.961Z,1.93
2023-01-07T10:07:01.800Z,2.27
2023-01-07T10:09:39.118Z,2.13
2023-01-07T10:12:16.721Z,2.60
2023-01-07T10:15:06.446Z,2.60
2023-01-07T10:17:56.613Z,2.80
2023-01-07T10:20:35.411Z,2.80
2023-01-07T10:23:06.568Z,2.50
2023-01-07T10:25:45.098Z,2.60
2023-01-07T10:28:19.232Z,2.43
2023-01-07T10:30:51.785Z,2.50
2023-01-07T10:33:25.067Z,2.80
2023-01-07T10:36:02.560Z,2.47
2023-01-07T10:38:35.224Z,2.97
2023-01-07T10:41:10.959Z,2.50
2023-01-07T10:43:50.420Z,2.37
2023-01-07T10:46:31.518Z,2.23
2023-01-07T10:49:27.521Z,2.50
2023-01-07T10:52:13.315Z,2.40
2023-01-07T10:54:58.564Z,2.10
2023-01-07T10:57:31.145Z,2.67
2023-01-07T11:00:03.594Z,2.27
2023-01-07T11:02:32.245Z,2.70
2023-01-07T11:05:01.857Z,2.67
2023-01-07T11:07:40.198Z,2.40
2023-01-07T11:10:13.810Z,2.53
2023-01-07T11:12:48.141Z,2.53
2023-01-07T11:15:21.521Z,2.23
2023-01-07T11:17:53.306Z,2.07
2023-01-07T11:20:44.489Z,2.30
2023-01-07T11:23:27.252Z,1.53
2023-01-07T11:25:56.633Z,2.00
2023-01-07T11:28:29.403Z,1.70
2023-01-07T11:31:00.629Z,1.57
2023-01-07T11:34:01.267Z,1.53
2023-01-07T11:36:40.481Z,1.40
2023-01-07T11:39:11.167Z,1.60
2023-01-07T11:41:52.006Z,1.30
2023-01-07T11:44:21.819Z,1.30
2023-01-07T11:46:50.147Z,1.27
2023-01-07T11:49:23.905Z,1.17
2023-01-07T11:51:52.284Z,1.40
2023-01-07T11:54:23.418Z,0.90
2023-01-07T11:56:54.111Z,1.27
2023-01-07T11:59:31.805Z,1.23
2023-01-07T12:02:00.902Z,1.17
2023-01-07T12:04:31.529Z,1.07
2023-01-07T12:07:02.299Z,0.90
2023-01-07T12:09:41.079Z,1.10
2023-01-07T12:12:27.873Z,1.03
2023-01-07T12:14:58.137Z,0.80
2023-01-07T12:17:27.156Z,1.10
2023-01-07T12:20:27.722Z,0.90
2023-01-07T12:23:10.131Z,0.80
2023-01-07T12:25:50.161Z,0.80
2023-01-07T12:28:21.380Z,1.00
2023-01-07T12:31:15.365Z,0.80
2023-01-07T12:34:01.678Z,0.80
2023-01-07T12:36:37.202Z,0.73
2023-01-07T12:39:12.233Z,0.90
2023-01-07T12:41:44.371Z,1.20
2023-01-07T12:44:17.003Z,0.83
2023-01-07T12:46:53.617Z,0.90
2023-01-07T12:49:50.346Z,1.00
2023-01-07T12:52:22.343Z,1.20
2023-01-07T12:54:57.194Z,1.20
2023-01-07T12:57:31.434Z,1.00
2023-01-07T13:00:06.076Z,1.20
2023-01-07T13:02:45.051Z,1.10
2023-01-07T13:05:16.745Z,0.70
2023-01-07T13:07:53.961Z,0.93
2023-01-07T13:10:27.834Z,1.10
2023-01-07T13:12:59.828Z,1.27
2023-01-07T13:15:39.470Z,1.43
2023-01-07T13:18:19.948Z,1.10
2023-01-07T13:21:04.874Z,0.80
2023-01-07T13:24:15.068Z,1.10
2023-01-07T13:26:59.176Z,1.00
2023-01-07T13:29:42.035Z,1.10
2023-01-07T13:32:51.950Z,1.17
2023-01-07T13:35:46.981Z,0.80
2023-01-07T13:38:38.638Z,0.90
2023-01-07T13:41:19.399Z,0.97
2023-01-07T13:44:06.382Z,1.10
2023-01-07T13:46:37.713Z,1.77
2023-01-07T13:49:06.889Z,1.63
2023-01-07T13:51:39.033Z,1.60
2023-01-07T13:54:11.738Z,1.10
2023-01-07T13:56:40.844Z,1.50
2023-01-07T13:59:49.044Z,1.40
2023-01-07T14:02:23.404Z,1.30
2023-01-07T14:05:04.421Z,1.37
2023-01-07T14:07:45.555Z,1.40
2023-01-07T14:10:20.017Z,1.00
2023-01-07T14:13:06.858Z,1.67
2023-01-07T14:15:57.316Z,1.50
2023-01-07T14:19:00.916Z,1.27
2023-01-07T14:21:55.361Z,1.43
2023-01-07T14:24:44.907Z,1.60
2023-01-07T14:27:43.233Z,1.50
2023-01-07T14:30:24.060Z,1.33
2023-01-07T14:33:02.231Z,1.37
2023-01-07T14:35:34.765Z,1.30
2023-01-07T14:38:23.222Z,1.20
2023-01-07T14:41:09.353Z,1.70
2023-01-07T14:44:06.381Z,1.70
2023-01-07T14:46:52.139Z,1.40
2023-01-07T14:49:53.657Z,1.27
2023-01-07T14:52:47.853Z,1.33
2023-01-07T14:55:52.063Z,1.40
2023-01-07T14:58:40.673Z,1.70
2023-01-07T15:01:34.971Z,1.50
2023-01-07T15:04:45.676Z,1.47
2023-01-07T15:07:18.156Z,1.77
2023-01-07T15:10:10.986Z,1.43
2023-01-07T15:12:58.434Z,1.60
2023-01-07T15:15:47.331Z,1.60
2023-01-07T15:18:17.000Z,1.53
2023-01-07T15:20:56.904Z,1.50
2023-01-07T15:23:29.805Z,1.60
2023-01-07T15:26:03.540Z,1.50
2023-01-07T15:28:42.242Z,1.70
2023-01-07T15:31:19.670Z,1.90
2023-01-07T15:34:05.586Z,1.70
2023-01-07T15:36:34.576Z,1.70
2023-01-07T15:39:04.533Z,1.60
2023-01-07T15:41:34.529Z,1.93
2023-01-07T15:44:05.352Z,1.97
2023-01-07T15:46:40.067Z,1.90
2023-01-07T15:49:23.575Z,1.53
2023-01-07T15:51:54.491Z,1.43
2023-01-07T15:54:28.061Z,1.80
2023-01-07T15:57:00.490Z,1.80
2023-01-07T15:59:30.951Z,1.50
2023-01-07T16:02:07.656Z,1.40
2023-01-07T16:04:38.498Z,1.80
2023-01-07T16:07:06.692Z,1.60
2023-01-07T16:09:35.427Z,1.30
2023-01-07T16:12:03.593Z,1.30
2023-01-07T16:14:37.849Z,1.80
2023-01-07T16:17:14.202Z,1.50
2023-01-07T16:19:42.786Z,1.80
2023-01-07T16:22:15.005Z,1.60
2023-01-07T16:24:49.451Z,1.70
2023-01-07T16:27:19.113Z,1.60
2023-01-07T16:29:51.921Z,1.60
2023-01-07T16:32:23.923Z,1.40
2023-01-07T16:35:12.253Z,1.80
2023-01-07T16:37:41.329Z,2.00
2023-01-07T16:40:21.816Z,1.83
2023-01-07T16:42:50.876Z,2.00
2023-01-07T16:45:28.419Z,2.10
2023-01-07T16:48:20.131Z,1.60
2023-01-07T16:50:49.884Z,1.70
2023-01-07T16:53:24.569Z,2.27
2023-01-07T16:55:56.414Z,2.13
2023-01-07T16:58:31.087Z,1.93
2023-01-07T17:01:01.759Z,2.00
2023-01-07T17:03:36.941Z,1.93
2023-01-07T17:06:07.532Z,2.13
2023-01-07T17:08:36.577Z,1.83
2023-01-07T17:11:09.224Z,2.07
2023-01-07T17:13:39.526Z,1.70
2023-01-07T17:16:27.330Z,2.17
2023-01-07T17:18:58.442Z,1.80
2023-01-07T17:21:38.181Z,2.00
2023-01-07T17:24:07.377Z,1.90
2023-01-07T17:26:40.962Z,2.20
2023-01-07T17:29:12.881Z,2.13
2023-01-07T17:31:41.563Z,2.47
2023-01-07T17:34:13.268Z,1.90
2023-01-07T17:36:41.493Z,1.80
2023-01-07T17:39:09.777Z,2.00
2023-01-07T17:41:56.690Z,2.50
2023-01-07T17:44:24.876Z,2.30
2023-01-07T17:46:53.270Z,2.30
2023-01-07T17:49:22.819Z,2.13
2023-01-07T17:51:53.248Z,2.00
2023-01-07T17:54:24.579Z,1.87
2023-01-07T17:56:53.457Z,2.50
2023-01-07T17:59:23.774Z,2.70
2023-01-07T18:01:54.653Z,2.23
2023-01-07T18:04:24.483Z,1.90
2023-01-07T18:06:52.752Z,2.20
2023-01-07T18:09:21.175Z,2.40
2023-01-07T18:12:07.186Z,2.33
2023-01-07T18:14:35.382Z,2.13
2023-01-07T18:17:03.557Z,2.30
2023-01-07T18:19:33.048Z,2.13
2023-01-07T18:22:01.293Z,2.67
2023-01-07T18:24:29.505Z,2.30
2023-01-07T18:26:57.710Z,3.00
2023-01-07T18:29:25.896Z,2.40
2023-01-07T18:31:54.625Z,2.50
2023-01-07T18:34:22.945Z,2.20
2023-01-07T18:36:54.282Z,2.30
2023-01-07T18:39:22.620Z,2.33
2023-01-07T18:41:51.142Z,2.60
2023-01-07T18:44:20.399Z,2.20
2023-01-07T18:46:48.668Z,2.37
2023-01-07T18:49:16.855Z,2.00
2023-01-07T18:51:47.560Z,2.00
2023-01-07T18:54:17.415Z,2.40
2023-01-07T18:56:46.600Z,2.20
2023-01-07T18:59:15.131Z,2.40
2023-01-07T19:01:43.597Z,2.33
2023-01-07T19:04:12.040Z,2.40
2023-01-07T19:06:40.282Z,2.70
2023-01-07T19:09:08.468Z,2.40
2023-01-07T19:11:38.505Z,2.47
2023-01-07T19:14:06.842Z,2.43
2023-01-07T19:16:36.259Z,2.80
2023-01-07T19:19:05.261Z,2.80
2023-01-07T19:21:33.565Z,2.73
2023-01-07T19:24:04.398Z,2.53
2023-01-07T19:26:33.795Z,2.67
2023-01-07T19:29:04.181Z,2.70
2023-01-07T19:31:32.472Z,3.13
2023-01-07T19:34:00.828Z,1.90
2023-01-07T19:36:29.397Z,3.53
2023-01-07T19:38:58.997Z,3.00
2023-01-07T19:41:27.353Z,2.80
2023-01-07T19:43:59.938Z,2.30
2023-01-07T19:46:29.536Z,2.93
2023-01-07T19:48:57.820Z,2.27
2023-01-07T19:51:26.079Z,1.93
2023-01-07T19:53:54.449Z,2.10
2023-01-07T19:56:22.657Z,2.30
2023-01-07T19:58:54.197Z,2.00
2023-01-07T20:01:26.259Z,1.97
2023-01-07T20:03:57.429Z,2.17
2023-01-07T20:06:27.301Z,2.00
2023-01-07T20:08:56.763Z,1.80
2023-01-07T20:11:25.954Z,1.70
2023-01-07T20:13:54.169Z,1.33
2023-01-07T20:16:25.077Z,1.70
2023-01-07T20:18:56.475Z,1.40
2023-01-07T20:21:26.757Z,1.67
2023-01-07T20:23:55.480Z,1.40
2023-01-07T20:26:25.927Z,2.40
2023-01-07T20:28:54.232Z,1.60
2023-01-07T20:31:24.053Z,1.40
2023-01-07T20:33:55.479Z,1.60
2023-01-07T20:36:27.594Z,1.53
2023-01-07T20:38:56.572Z,1.60
2023-01-07T20:41:27.964Z,1.40
2023-01-07T20:43:57.819Z,1.73
2023-01-07T20:46:27.991Z,1.67
2023-01-07T20:48:56.263Z,1.53
2023-01-07T20:51:25.897Z,1.40
2023-01-07T20:53:54.596Z,1.53
2023-01-07T20:56:24.567Z,1.47
2023-01-07T20:58:52.821Z,1.30
2023-01-07T21:01:22.644Z,1.43
2023-01-07T21:03:51.486Z,1.60
2023-01-07T21:06:21.441Z,1.40
2023-01-07T21:08:51.454Z,1.70
2023-01-07T21:11:21.436Z,1.33
2023-01-07T21:13:50.523Z,1.50
2023-01-07T21:16:19.423Z,2.17
2023-01-07T21:18:47.974Z,1.77
2023-01-07T21:21:18.868Z,1.50
2023-01-07T21:23:47.889Z,1.70
2023-01-07T21:26:18.624Z,2.07
2023-01-07T21:28:47.353Z,1.77
2023-01-07T21:31:17.117Z,1.90
2023-01-07T21:33:45.485Z,1.90
2023-01-07T21:36:15.964Z,1.43
2023-01-07T21:38:44.920Z,1.80
2023-01-07T21:41:15.412Z,1.87
2023-01-07T21:43:45.388Z,1.53
2023-01-07T21:46:14.181Z,2.13
2023-01-07T21:48:46.527Z,1.57
2023-01-07T21:51:18.891Z,1.77
2023-01-07T21:53:47.499Z,2.00
2023-01-07T21:56:17.442Z,1.80
2023-01-07T21:58:47.214Z,1.70
2023-01-07T22:01:17.455Z,1.97
2023-01-07T22:03:47.957Z,1.90
2023-01-07T22:06:19.772Z,1.87
2023-01-07T22:08:48.411Z,1.70
2023-01-07T22:11:18.267Z,1.63
2023-01-07T22:13:53.868Z,2.10
2023-01-07T22:16:24.247Z,1.70
2023-01-07T22:18:52.822Z,2.20
2023-01-07T22:21:21.726Z,1.37
2023-01-07T22:23:49.913Z,2.00
2023-01-07T22:26:19.619Z,2.03
2023-01-07T22:28:53.426Z,2.07
2023-01-07T22:31:23.854Z,1.50
2023-01-07T22:33:52.552Z,2.20
2023-01-07T22:36:26.182Z,2.00
2023-01-07T22:38:56.636Z,2.17
2023-01-07T22:41:25.684Z,2.10
2023-01-07T22:43:55.498Z,1.67
2023-01-07T22:46:27.107Z,1.63
2023-01-07T22:48:55.366Z,1.80
2023-01-07T22:51:28.792Z,1.90
2023-01-07T22:53:58.751Z,1.70
2023-01-07T22:56:27.704Z,1.50
2023-01-07T22:58:57.497Z,1.40
2023-01-07T23:01:25.840Z,1.33
2023-01-07T23:03:54.298Z,1.20
2023-01-07T23:06:22.631Z,1.50
2023-01-07T23:08:51.042Z,1.83
2023-01-07T23:11:33.215Z,1.20
2023-01-07T23:14:03.217Z,2.03
2023-01-07T23:16:31.714Z,1.73
2023-01-07T23:18:59.899Z,1.30
2023-01-07T23:21:28.296Z,1.10
2023-01-07T23:23:56.565Z,1.30
2023-01-07T23:26:24.787Z,2.00
2023-01-07T23:28:53.117Z,1.10
2023-01-07T23:31:22.731Z,1.60
2023-01-07T23:33:50.934Z,1.40
2023-01-07T23:36:19.183Z,1.30
2023-01-07T23:38:47.516Z,1.30
2023-01-07T23:41:15.741Z,1.40
2023-01-07T23:43:44.021Z,1.40
2023-01-07T23:46:12.755Z,2.00
2023-01-07T23:48:42.584Z,1.60
2023-01-07T23:51:12.332Z,1.20
2023-01-07T23:53:40.793Z,1.13
2023-01-07T23:56:09.714Z,1.37
2023-01-07T23:58:38.945Z,1.00
